P/v Golden Gate — WDE5665 — position and weather

sailwx.info

Track history (hours):
 
Tides and Currents Weather Stations Pressure Air Temp Water Temp Dewpoint Dewpoint Depression Visibility Wind Speed Wind Dir Waves Ship Positions

P/v Golden Gate

Owner: San Francisco Bar Pilots Benevolent and Protective, San Francisco, CA. More information available from US FCC via Universal Licensing System and Coast Guard Vessel Documentation Center.

Last reported at 2017-May-26 10:30 UTC. Time now 2017-May-26 10:57 UTC.
Position N 37°48' W 122°24'.

Length 23 m; draft 2 m.

Type: Pilot. MMSI: 367370010.

Date/timePositionNaut miles runAvg speedWind from/ knotsBaromVisibWave heightAir tempDewpointWater temp
2017-May-26 10:30N 37°48' W 122°24'0 0.0
2017-May-26 10:00N 37°48' W 122°24'0 0.0
2017-May-26 09:31N 37°48' W 122°24'1 2.8
2017-May-26 09:01N 37°49' W 122°24'1 2.8
2017-May-26 08:31N 37°48' W 122°24'0 0.0
2017-May-26 08:00N 37°48' W 122°24'0 0.0
2017-May-26 07:30N 37°48' W 122°24'0 0.0
2017-May-26 07:00N 37°48' W 122°24'0 0.0
2017-May-26 06:30N 37°48' W 122°24'0 0.0
2017-May-26 06:00N 37°48' W 122°24'0 0.0
2017-May-26 05:30N 37°48' W 122°24'3 6.7
2017-May-26 05:00N 37°49' W 122°20'1 2.0
2017-May-26 04:30N 37°48' W 122°21'2 4.5
2017-May-26 03:59N 37°48' W 122°24'0 0.0
2017-May-26 03:30N 37°48' W 122°24'0 0.0
2017-May-26 03:00N 37°48' W 122°24'0 0.0
2017-May-26 02:30N 37°48' W 122°24'0 0.0
2017-May-26 02:01N 37°48' W 122°24'0 0.0
2017-May-26 01:31N 37°48' W 122°24'0 0.0
2017-May-26 01:00N 37°48' W 122°24'2 4.8
2017-May-26 00:31N 37°48' W 122°21'2 4.4
2017-May-26 00:00N 37°48' W 122°24'4 7.1
2017-May-25 23:31N 37°48' W 122°19'0 0.7
2017-May-25 23:01N 37°48' W 122°19'3 6.8
2017-May-25 22:30N 37°48' W 122°24'0 0.0
2017-May-25 22:00N 37°48' W 122°24'0 0.0
2017-May-25 21:30N 37°48' W 122°24'5 9.4
2017-May-25 21:00N 37°48' W 122°18'1 2.6
2017-May-25 20:30N 37°48' W 122°19'918.3
2017-May-25 20:01N 37°48' W 122°31'3 4.9
2017-May-25 19:29N 37°47' W 122°34'817.4
2017-May-25 19:00N 37°48' W 122°24'0 0.8
2017-May-25 18:30N 37°48' W 122°24'0 0.0
2017-May-25 18:00N 37°48' W 122°24'3 5.4
2017-May-25 17:30N 37°46' W 122°22'0 0.3
2017-May-25 17:00N 37°46' W 122°22'4 7.4
2017-May-25 16:31N 37°49' W 122°25'4 8.0
2017-May-25 16:01N 37°49' W 122°20'4 8.6
2017-May-25 15:31N 37°44' W 122°21'4 7.3
2017-May-25 15:01N 37°48' W 122°19'2 3.1
2017-May-25 14:31N 37°47' W 122°21'2 2.4
2017-May-25 13:30N 37°48' W 122°24'0 0.0
2017-May-25 13:00N 37°48' W 122°24'0 0.0
2017-May-25 12:30N 37°48' W 122°24'0 0.0
2017-May-25 12:00N 37°48' W 122°24'0 0.0
2017-May-25 11:30N 37°48' W 122°24'0 0.0
2017-May-25 11:00N 37°48' W 122°24'0 0.0
2017-May-25 10:30N 37°48' W 122°24'0 0.0
2017-May-25 10:00N 37°48' W 122°24'2 3.2
2017-May-25 09:31N 37°48' W 122°22'2 3.2
2017-May-25 09:00N 37°48' W 122°24'0 0.0
2017-May-25 08:30N 37°48' W 122°24'0 0.0
2017-May-25 08:00N 37°48' W 122°24'0 0.0
2017-May-25 07:30N 37°48' W 122°24'0 0.0
2017-May-25 07:00N 37°48' W 122°24'816.0
2017-May-25 06:31N 37°47' W 122°34'3 5.2
2017-May-25 06:00N 37°48' W 122°31'918.9
2017-May-25 05:30N 37°49' W 122°19'5 9.7
2017-May-25 05:00N 37°49' W 122°25'4 7.7
2017-May-25 04:30N 37°46' W 122°22'2 4.9
2017-May-25 04:00N 37°48' W 122°24'0 0.0
2017-May-25 03:30N 37°48' W 122°24'0 0.0
2017-May-25 02:59N 37°48' W 122°24'0 0.0
2017-May-25 02:30N 37°48' W 122°24'4 8.0
2017-May-25 02:00N 37°45' W 122°20'0 0.9
2017-May-25 01:30N 37°46' W 122°20'4 7.1
2017-May-25 01:00N 37°48' W 122°24'0 0.0
2017-May-25 00:30N 37°48' W 122°24'0 0.0
2017-May-25 00:00N 37°48' W 122°24'2 4.9
2017-May-24 23:30N 37°48' W 122°21'2 4.7
2017-May-24 23:01N 37°48' W 122°24'816.1
2017-May-24 22:31N 37°47' W 122°34'0 0.6
2017-May-24 21:59N 37°47' W 122°33'816.2
2017-May-24 21:30N 37°48' W 122°24'0 0.0
2017-May-24 21:00N 37°48' W 122°24'0 0.0
2017-May-24 20:30N 37°48' W 122°24'1 1.4
2017-May-24 19:37N 37°49' W 122°25'0 0.1
2017-May-24 19:30N 37°49' W 122°25'3 6.0
2017-May-24 19:00N 37°49' W 122°21'4 8.4
2017-May-24 18:30N 37°49' W 122°27'610.3
2017-May-24 17:55N 37°47' W 122°34'820.1
2017-May-24 17:30N 37°49' W 122°24'1 2.6
2017-May-24 17:00N 37°48' W 122°22'1 2.1
2017-May-24 16:30N 37°48' W 122°24'0 0.0
2017-May-24 16:00N 37°48' W 122°24'0 0.0
2017-May-24 15:30N 37°48' W 122°24'3 6.3
2017-May-24 15:00N 37°48' W 122°20'2 4.4
2017-May-24 14:31N 37°48' W 122°23'1 0.9
2017-May-24 13:30N 37°48' W 122°24'0 0.0
2017-May-24 13:00N 37°48' W 122°24'0 0.0
2017-May-24 12:30N 37°48' W 122°24'0 0.0
2017-May-24 12:00N 37°48' W 122°24'0 0.1
2017-May-24 11:31N 37°48' W 122°24'4 8.2
2017-May-24 11:01N 37°45' W 122°21'4 7.7
2017-May-24 10:30N 37°48' W 122°23'1 2.6
2017-May-24 10:01N 37°49' W 122°24'1 2.0
2017-May-24 09:31N 37°48' W 122°24'0 0.9
2017-May-24 09:00N 37°49' W 122°24'0 0.9
2017-May-24 08:30N 37°48' W 122°24'2 3.4
2017-May-24 08:00N 37°47' W 122°22'2 3.3
2017-May-24 07:30N 37°48' W 122°24'0 0.0
2017-May-24 07:00N 37°48' W 122°24'0 0.0
2017-May-24 06:30N 37°48' W 122°24'0 0.4
2017-May-24 06:00N 37°48' W 122°24'1019.3
2017-May-24 05:30N 37°47' W 122°36'3 6.4
2017-May-24 05:00N 37°48' W 122°32'816.5
2017-May-24 04:30N 37°47' W 122°22'2 4.1
2017-May-24 04:00N 37°48' W 122°24'0 0.3
2017-May-24 03:30N 37°48' W 122°24'0 0.0
2017-May-24 03:00N 37°48' W 122°24'0 0.0
2017-May-24 02:30N 37°48' W 122°24'0 0.0
2017-May-24 02:00N 37°48' W 122°24'816.8
2017-May-24 01:30N 37°47' W 122°34'1 1.3
2017-May-24 01:00N 37°47' W 122°35'1020.7
2017-May-24 00:30N 37°48' W 122°22'2 3.5
2017-May-24 00:00N 37°46' W 122°22'1 2.5
2017-May-23 23:30N 37°45' W 122°21'4 7.2
2017-May-23 23:00N 37°48' W 122°24'0 0.0
2017-May-23 22:30N 37°48' W 122°24'0 0.0
2017-May-23 22:00N 37°48' W 122°24'2 4.1
2017-May-23 21:31N 37°49' W 122°26'714.2
2017-May-23 21:00N 37°47' W 122°35'1020.0
2017-May-23 20:31N 37°48' W 122°22'1 2.7
2017-May-23 20:00N 37°48' W 122°24'0 0.0
2017-May-23 19:30N 37°48' W 122°24'0 0.0
2017-May-23 19:00N 37°48' W 122°24'0 0.0
2017-May-23 18:30N 37°48' W 122°24'4 7.2
2017-May-23 18:00N 37°48' W 122°19'4 7.2
2017-May-23 17:30N 37°48' W 122°24'0 0.0
2017-May-23 17:00N 37°48' W 122°24'0 0.3
2017-May-23 16:30N 37°48' W 122°24'1 2.3
2017-May-23 15:58N 37°49' W 122°25'4 8.5
2017-May-23 15:30N 37°49' W 122°20'612.0
2017-May-23 15:01N 37°49' W 122°28'3 3.4
2017-May-23 14:00N 37°48' W 122°24'4 8.4
2017-May-23 13:30N 37°48' W 122°18'4 7.7
2017-May-23 13:00N 37°48' W 122°23'3 6.2
2017-May-23 12:30N 37°45' W 122°23'0 0.9
2017-May-23 12:00N 37°45' W 122°22'3 5.9
2017-May-23 11:30N 37°48' W 122°24'2 3.3
2017-May-23 11:01N 37°49' W 122°26'2 3.3
2017-May-23 10:30N 37°48' W 122°24'0 0.1
2017-May-23 10:00N 37°48' W 122°24'0 0.5
2017-May-23 09:30N 37°48' W 122°23'0 0.5
2017-May-23 09:00N 37°48' W 122°24'2 4.8
2017-May-23 08:31N 37°48' W 122°21'2 4.6
2017-May-23 08:00N 37°48' W 122°24'0 0.0
2017-May-23 07:30N 37°48' W 122°24'1 1.3
2017-May-23 07:01N 37°48' W 122°23'1 1.2
2017-May-23 06:30N 37°48' W 122°24'0 0.0
2017-May-23 06:00N 37°48' W 122°24'0 0.0
2017-May-23 05:30N 37°48' W 122°24'0 0.9
2017-May-23 05:01N 37°48' W 122°23'0 0.9
2017-May-23 04:30N 37°48' W 122°24'0 0.0
2017-May-23 04:00N 37°48' W 122°24'0 0.2
2017-May-23 03:31N 37°48' W 122°24'1019.8
2017-May-23 03:00N 37°46' W 122°36'1 1.8
2017-May-23 02:28N 37°46' W 122°37'511.6
2017-May-23 02:01N 37°48' W 122°31'714.1
2017-May-23 01:31N 37°48' W 122°22'1 2.8
2017-May-23 01:00N 37°48' W 122°24'3 5.3
2017-May-23 00:30N 37°47' W 122°21'1 1.4
2017-May-23 00:01N 37°47' W 122°21'2 3.6
2017-May-22 23:31N 37°45' W 122°21'4 7.9
2017-May-22 23:00N 37°48' W 122°24'0 0.0
2017-May-22 22:30N 37°48' W 122°24'0 0.0
2017-May-22 22:00N 37°48' W 122°24'0 0.0
2017-May-22 21:30N 37°48' W 122°24'2 3.2
2017-May-22 21:00N 37°48' W 122°22'611.6
2017-May-22 20:30N 37°49' W 122°29'917.4
2017-May-22 19:59N 37°45' W 122°40'817.3
2017-May-22 19:30N 37°48' W 122°30'5 9.6
2017-May-22 19:01N 37°48' W 122°24'0 0.0
2017-May-22 18:31N 37°48' W 122°24'0 0.1
2017-May-22 18:01N 37°48' W 122°24'3 6.0
2017-May-22 17:30N 37°46' W 122°21'2 4.4
2017-May-22 17:01N 37°48' W 122°20'4 7.4
2017-May-22 16:30N 37°49' W 122°25'0 0.0
2017-May-22 16:00N 37°49' W 122°25'611.4
2017-May-22 15:31N 37°45' W 122°20'817.0
2017-May-22 15:00N 37°48' W 122°30'4 4.3
2017-May-22 14:00N 37°49' W 122°24'1 2.4
2017-May-22 13:30N 37°48' W 122°23'0 0.9
2017-May-22 13:00N 37°48' W 122°23'1 1.4
2017-May-22 12:30N 37°48' W 122°24'0 0.0
2017-May-22 12:00N 37°48' W 122°24'0 0.2
2017-May-22 11:30N 37°48' W 122°24'1 2.0
2017-May-22 11:00N 37°49' W 122°25'1018.8
2017-May-22 10:29N 37°46' W 122°37'2 4.4
2017-May-22 09:58N 37°47' W 122°34'818.0
2017-May-22 09:31N 37°48' W 122°24'3 5.8
2017-May-22 09:01N 37°49' W 122°20'3 5.9
2017-May-22 08:30N 37°48' W 122°24'0 0.0
2017-May-22 08:00N 37°48' W 122°24'0 0.0
2017-May-22 07:30N 37°48' W 122°24'0 0.0
2017-May-22 07:00N 37°48' W 122°24'0 0.0
2017-May-22 06:30N 37°48' W 122°24'0 0.0
2017-May-22 06:00N 37°48' W 122°24'0 0.0
2017-May-22 05:30N 37°48' W 122°24'0 0.0
2017-May-22 05:00N 37°48' W 122°24'0 0.0
2017-May-22 04:30N 37°48' W 122°24'0 0.0
2017-May-22 04:00N 37°48' W 122°24'0 0.0
2017-May-22 03:30N 37°48' W 122°24'0 0.0
2017-May-22 03:00N 37°48' W 122°24'0 0.0
2017-May-22 02:30N 37°48' W 122°24'0 0.0
2017-May-22 02:00N 37°48' W 122°24'0 0.0
2017-May-22 01:30N 37°48' W 122°24'0 0.0
2017-May-22 01:00N 37°48' W 122°24'3 6.7
2017-May-22 00:30N 37°48' W 122°20'1 2.2
2017-May-22 00:01N 37°48' W 122°21'2 4.4
2017-May-21 23:30N 37°48' W 122°24'0 0.0
2017-May-21 23:00N 37°48' W 122°24'0 0.0
2017-May-21 22:30N 37°48' W 122°24'0 0.0
2017-May-21 22:00N 37°48' W 122°24'0 0.0
2017-May-21 21:30N 37°48' W 122°24'0 0.0
2017-May-21 21:00N 37°48' W 122°24'0 0.0
2017-May-21 20:30N 37°48' W 122°24'0 0.0
2017-May-21 20:00N 37°48' W 122°24'0 0.0
2017-May-21 19:30N 37°48' W 122°24'0 0.0
2017-May-21 19:00N 37°48' W 122°24'0 0.0
2017-May-21 18:31N 37°48' W 122°24'0 0.0
2017-May-21 18:01N 37°48' W 122°24'0 0.0
2017-May-21 17:31N 37°48' W 122°24'0 0.0
2017-May-21 17:00N 37°48' W 122°24'0 0.2
2017-May-21 16:30N 37°48' W 122°24'2 4.6
2017-May-21 16:00N 37°48' W 122°21'2 4.4
2017-May-21 15:30N 37°48' W 122°24'0 0.0
2017-May-21 15:00N 37°48' W 122°24'0 0.0
2017-May-21 14:30N 37°48' W 122°24'0 0.0
2017-May-21 13:30N 37°48' W 122°24'0 0.0
2017-May-21 13:00N 37°48' W 122°24'0 0.0
2017-May-21 12:30N 37°48' W 122°24'0 0.0
2017-May-21 12:00N 37°48' W 122°24'2 4.9
2017-May-21 11:31N 37°49' W 122°26'3 5.0
2017-May-21 11:00N 37°49' W 122°23'1020.2
2017-May-21 10:30N 37°46' W 122°36'2 3.3
2017-May-21 09:54N 37°47' W 122°34'820.7
2017-May-21 09:30N 37°48' W 122°24'0 0.1
2017-May-21 09:00N 37°48' W 122°24'0 0.0
2017-May-21 08:30N 37°48' W 122°24'0 0.1
2017-May-21 08:00N 37°48' W 122°24'2 3.9
2017-May-21 07:30N 37°47' W 122°22'2 3.9
2017-May-21 07:00N 37°48' W 122°24'0 0.0
2017-May-21 06:30N 37°48' W 122°24'0 0.0
2017-May-21 06:00N 37°48' W 122°24'816.3
2017-May-21 05:30N 37°47' W 122°34'1 2.6
2017-May-21 05:00N 37°48' W 122°32'1019.6
2017-May-21 04:30N 37°49' W 122°20'3 5.6
2017-May-21 04:00N 37°49' W 122°24'1 1.0
2017-May-21 03:31N 37°48' W 122°24'0 0.0
2017-May-21 03:00N 37°48' W 122°24'0 0.0
2017-May-21 02:30N 37°48' W 122°24'0 0.0
2017-May-21 02:00N 37°48' W 122°24'0 0.0
2017-May-21 01:31N 37°48' W 122°24'3 5.7
2017-May-21 01:01N 37°46' W 122°21'1 2.7
2017-May-21 00:31N 37°45' W 122°20'4 8.4
2017-May-21 00:01N 37°48' W 122°24'0 0.0
2017-May-20 23:31N 37°48' W 122°24'1 1.4
2017-May-20 23:01N 37°49' W 122°23'1019.5
2017-May-20 22:31N 37°47' W 122°36'815.4
2017-May-20 22:01N 37°49' W 122°26'2 4.5
2017-May-20 21:30N 37°48' W 122°24'1 2.6
2017-May-20 21:00N 37°49' W 122°25'0 0.2
2017-May-20 20:31N 37°49' W 122°25'1 1.0
2017-May-20 20:01N 37°49' W 122°25'0 0.8
2017-May-20 19:31N 37°49' W 122°25'1 2.9
2017-May-20 19:00N 37°48' W 122°24'0 0.0
2017-May-20 17:57N 37°48' W 122°24'0 0.0
2017-May-20 17:30N 37°48' W 122°24'2 3.5
2017-May-20 17:00N 37°48' W 122°22'2 3.6
2017-May-20 16:31N 37°48' W 122°19'4 7.0
2017-May-20 16:00N 37°48' W 122°24'0 0.0
2017-May-20 15:30N 37°48' W 122°24'0 0.0
2017-May-20 15:00N 37°48' W 122°24'0 0.0
2017-May-20 14:31N 37°48' W 122°24'3 3.2
2017-May-20 13:31N 37°49' W 122°28'611.9
2017-May-20 13:00N 37°48' W 122°20'510.3
2017-May-20 12:30N 37°49' W 122°27'2 4.9
2017-May-20 12:00N 37°48' W 122°24'0 0.0
2017-May-20 11:30N 37°48' W 122°24'0 0.0
2017-May-20 11:00N 37°48' W 122°24'2 3.7
2017-May-20 10:31N 37°47' W 122°22'2 3.7
2017-May-20 10:01N 37°48' W 122°24'0 0.0
2017-May-20 09:30N 37°48' W 122°24'0 0.0
2017-May-20 09:01N 37°48' W 122°24'1 2.8
2017-May-20 08:30N 37°49' W 122°25'1220.3
2017-May-20 07:55N 37°46' W 122°40'921.2
2017-May-20 07:31N 37°49' W 122°29'4 9.0
2017-May-20 07:00N 37°48' W 122°24'1 1.3
2017-May-20 06:31N 37°48' W 122°23'3 6.5
2017-May-20 06:01N 37°45' W 122°20'611.0
2017-May-20 05:31N 37°49' W 122°25'10 9.5
2017-May-20 04:29N 37°46' W 122°37'4 8.5
2017-May-20 04:01N 37°47' W 122°32'713.5
2017-May-20 03:31N 37°49' W 122°24'1 1.4
2017-May-20 03:01N 37°48' W 122°24'1 1.2
2017-May-20 02:30N 37°49' W 122°23'3 6.1
2017-May-20 02:01N 37°48' W 122°20'2 4.6
2017-May-20 01:31N 37°46' W 122°21'3 6.2
2017-May-20 01:00N 37°48' W 122°24'0 0.1
2017-May-20 00:30N 37°48' W 122°24'4 7.5
2017-May-20 00:00N 37°48' W 122°19'1 2.8
2017-May-19 23:30N 37°48' W 122°21'5 9.8
2017-May-19 23:00N 37°49' W 122°27'3 5.1
2017-May-19 22:30N 37°48' W 122°24'0 0.0
2017-May-19 22:00N 37°48' W 122°24'3 5.3
2017-May-19 21:31N 37°48' W 122°20'3 5.3
2017-May-19 21:01N 37°48' W 122°24'1 2.4
2017-May-19 20:30N 37°49' W 122°25'1 2.4
2017-May-19 20:00N 37°48' W 122°24'0 0.0
2017-May-19 19:30N 37°48' W 122°24'0 0.0
2017-May-19 17:54N 37°48' W 122°24'0 0.0
2017-May-19 16:01N 37°48' W 122°24'0 0.0
2017-May-19 16:00N 37°48' W 122°24'0 0.0
2017-May-19 15:30N 37°48' W 122°24'0 0.0
2017-May-19 15:00N 37°48' W 122°24'4 3.7
2017-May-19 14:00N 37°49' W 122°28'4 7.8
2017-May-19 13:31N 37°48' W 122°23'3 6.5
2017-May-19 13:00N 37°45' W 122°21'3 5.8
2017-May-19 12:30N 37°48' W 122°19'510.6
2017-May-19 12:00N 37°50' W 122°25'2 5.0
2017-May-19 11:31N 37°48' W 122°24'3 6.2
2017-May-19 11:00N 37°46' W 122°21'3 6.2
2017-May-19 10:30N 37°48' W 122°24'0 0.0
2017-May-19 10:01N 37°48' W 122°24'0 0.0
2017-May-19 09:31N 37°48' W 122°24'0 0.0
2017-May-19 09:00N 37°48' W 122°24'0 0.0
2017-May-19 08:31N 37°48' W 122°24'0 0.0
2017-May-19 08:00N 37°48' W 122°24'0 0.0
2017-May-19 07:31N 37°48' W 122°24'0 0.0
2017-May-19 07:00N 37°48' W 122°24'0 0.0
2017-May-19 06:30N 37°48' W 122°24'0 0.0
2017-May-19 06:01N 37°48' W 122°24'0 0.0
2017-May-19 05:31N 37°48' W 122°24'0 0.0
2017-May-19 05:01N 37°48' W 122°24'0 0.0
2017-May-19 04:30N 37°48' W 122°24'1 2.4
2017-May-19 04:01N 37°47' W 122°23'1 2.9
2017-May-19 03:30N 37°48' W 122°21'2 4.8
2017-May-19 03:00N 37°48' W 122°24'0 0.0
2017-May-19 02:30N 37°48' W 122°24'2 4.5
2017-May-19 02:01N 37°47' W 122°21'2 4.0
2017-May-19 01:30N 37°49' W 122°20'510.6
2017-May-19 01:00N 37°49' W 122°27'3 5.2
2017-May-19 00:30N 37°48' W 122°24'5 9.1
2017-May-19 00:00N 37°44' W 122°20'1 2.9
2017-May-18 23:30N 37°46' W 122°22'3 6.1
2017-May-18 23:00N 37°48' W 122°24'0 0.0
2017-May-18 22:30N 37°48' W 122°24'0 0.0
2017-May-18 22:00N 37°48' W 122°24'0 0.0
2017-May-18 21:30N 37°48' W 122°24'0 0.0
2017-May-18 20:59N 37°48' W 122°24'0 0.0
2017-May-18 20:30N 37°48' W 122°24'0 0.0
2017-May-18 20:00N 37°48' W 122°24'0 0.0
2017-May-18 19:30N 37°48' W 122°24'0 0.0
2017-May-18 19:00N 37°48' W 122°24'0 0.0
2017-May-18 18:30N 37°48' W 122°24'0 0.0
2017-May-18 18:00N 37°48' W 122°24'0 0.0
2017-May-18 17:30N 37°48' W 122°24'0 0.0
2017-May-18 17:00N 37°48' W 122°24'0 0.0
2017-May-18 16:30N 37°48' W 122°24'0 0.0
2017-May-18 16:00N 37°48' W 122°24'0 0.0
2017-May-18 15:30N 37°48' W 122°24'0 0.0
2017-May-18 15:00N 37°48' W 122°24'3 2.9
2017-May-18 14:01N 37°49' W 122°20'3 5.7
2017-May-18 13:31N 37°48' W 122°24'0 0.0
2017-May-18 13:00N 37°48' W 122°24'3 5.4
2017-May-18 12:31N 37°48' W 122°20'3 6.2
2017-May-18 12:00N 37°49' W 122°24'1 1.6
2017-May-18 11:30N 37°48' W 122°24'0 0.0
2017-May-18 11:00N 37°48' W 122°24'0 0.0
2017-May-18 10:30N 37°48' W 122°24'3 5.9
2017-May-18 10:00N 37°49' W 122°27'4 8.5
2017-May-18 09:30N 37°47' W 122°22'1 2.6
2017-May-18 09:00N 37°48' W 122°24'2 3.5
2017-May-18 08:30N 37°47' W 122°22'2 3.4
2017-May-18 08:00N 37°48' W 122°24'0 0.0
2017-May-18 07:30N 37°48' W 122°24'0 0.0
2017-May-18 07:00N 37°48' W 122°24'0 0.0
2017-May-18 06:30N 37°48' W 122°24'0 0.0
2017-May-18 06:00N 37°48' W 122°24'1 1.9
2017-May-18 05:31N 37°48' W 122°23'1 3.0
2017-May-18 05:00N 37°49' W 122°24'1 2.1
2017-May-18 04:30N 37°48' W 122°24'4 8.7
2017-May-18 04:00N 37°52' W 122°25'4 8.6
2017-May-18 03:30N 37°48' W 122°24'1 2.0
2017-May-18 03:00N 37°48' W 122°23'1 2.0
2017-May-18 02:31N 37°48' W 122°24'0 0.0
2017-May-18 02:00N 37°48' W 122°24'0 0.0
2017-May-18 01:30N 37°48' W 122°24'3 5.7
2017-May-18 01:00N 37°48' W 122°20'3 5.7
2017-May-18 00:30N 37°48' W 122°24'4 7.2
2017-May-18 00:00N 37°45' W 122°22'0 0.2
2017-May-17 23:30N 37°45' W 122°22'2 3.0
2017-May-17 23:00N 37°46' W 122°22'3 5.1
2017-May-17 22:30N 37°48' W 122°24'0 0.0
2017-May-17 22:00N 37°48' W 122°24'0 0.0
2017-May-17 21:30N 37°48' W 122°24'0 0.0
2017-May-17 21:00N 37°48' W 122°24'3 5.7
2017-May-17 20:31N 37°46' W 122°22'2 3.9
2017-May-17 20:01N 37°48' W 122°21'2 4.8
2017-May-17 19:30N 37°48' W 122°24'0 0.2
2017-May-17 19:00N 37°48' W 122°24'0 0.0
2017-May-17 18:30N 37°48' W 122°24'0 0.0
2017-May-17 18:00N 37°48' W 122°24'0 0.0
2017-May-17 17:30N 37°48' W 122°24'0 0.0
2017-May-17 17:00N 37°48' W 122°24'0 0.0
2017-May-17 16:30N 37°48' W 122°24'0 0.0
2017-May-17 16:00N 37°48' W 122°24'0 0.0
2017-May-17 15:27N 37°48' W 122°24'1 2.4
2017-May-17 15:01N 37°49' W 122°25'5 4.7
2017-May-17 14:00N 37°48' W 122°19'3 5.5
2017-May-17 13:30N 37°46' W 122°21'3 5.7
2017-May-17 13:00N 37°48' W 122°24'0 0.0
2017-May-17 12:30N 37°48' W 122°24'0 0.0
2017-May-17 12:00N 37°48' W 122°24'1 2.8
2017-May-17 11:30N 37°49' W 122°25'1 2.0
2017-May-17 11:00N 37°49' W 122°26'3 5.3
2017-May-17 10:30N 37°49' W 122°23'1122.2
2017-May-17 10:00N 37°46' W 122°37'3 5.3
2017-May-17 09:30N 37°47' W 122°34'815.7
2017-May-17 09:00N 37°48' W 122°24'4 7.2
2017-May-17 08:30N 37°46' W 122°20'2 4.9
2017-May-17 08:00N 37°48' W 122°21'2 3.4
2017-May-17 07:30N 37°47' W 122°21'2 4.7
2017-May-17 07:00N 37°48' W 122°24'0 0.0
2017-May-17 06:30N 37°48' W 122°24'0 0.0
2017-May-17 06:00N 37°48' W 122°24'0 0.0
2017-May-17 05:30N 37°48' W 122°24'0 0.0
2017-May-17 05:00N 37°48' W 122°24'0 0.0
2017-May-17 04:30N 37°48' W 122°24'2 4.1
2017-May-17 04:00N 37°49' W 122°26'2 4.1
2017-May-17 03:30N 37°48' W 122°24'0 0.0
2017-May-17 03:00N 37°48' W 122°24'0 0.0
2017-May-17 02:30N 37°48' W 122°24'0 0.0
2017-May-17 02:00N 37°48' W 122°24'0 0.0
2017-May-17 01:30N 37°48' W 122°24'3 5.5
2017-May-17 01:00N 37°47' W 122°21'3 5.1
2017-May-17 00:30N 37°48' W 122°23'0 0.6
2017-May-17 00:00N 37°48' W 122°24'0 0.0
2017-May-16 23:30N 37°48' W 122°24'0 0.0
2017-May-16 23:00N 37°48' W 122°24'0 0.0
2017-May-16 22:30N 37°48' W 122°24'1 2.3
2017-May-16 22:00N 37°48' W 122°23'2 3.6
2017-May-16 21:30N 37°46' W 122°21'3 5.5
2017-May-16 21:00N 37°48' W 122°24'0 0.0
2017-May-16 20:30N 37°48' W 122°24'0 0.0
2017-May-16 20:00N 37°48' W 122°24'0 0.0
2017-May-16 19:31N 37°48' W 122°24'0 0.0
2017-May-16 19:00N 37°48' W 122°24'0 0.0
2017-May-16 18:30N 37°48' W 122°24'0 0.0
2017-May-16 18:01N 37°48' W 122°24'3 6.1
2017-May-16 17:30N 37°46' W 122°21'3 6.4
2017-May-16 17:00N 37°49' W 122°20'1 1.6
2017-May-16 16:31N 37°48' W 122°20'4 8.0
2017-May-16 16:00N 37°49' W 122°24'1 1.3
2017-May-16 15:30N 37°49' W 122°25'2 3.0
2017-May-16 15:00N 37°49' W 122°27'611.0
2017-May-16 14:30N 37°46' W 122°21'3 2.8
2017-May-16 13:31N 37°48' W 122°24'0 0.0
2017-May-16 13:00N 37°48' W 122°24'0 0.0
2017-May-16 12:30N 37°48' W 122°24'0 0.0
2017-May-16 12:00N 37°48' W 122°24'0 0.0
2017-May-16 11:30N 37°48' W 122°24'0 0.0
2017-May-16 11:00N 37°48' W 122°24'0 0.0
2017-May-16 10:30N 37°48' W 122°24'  
Track history (hours):
 
Tides and Currents Weather Stations Pressure Air Temp Water Temp Dewpoint Dewpoint Depression Visibility Wind Speed Wind Dir Waves Ship Positions

P/v Golden Gate

Owner: San Francisco Bar Pilots Benevolent and Protective, San Francisco, CA. More information available from US FCC via Universal Licensing System and Coast Guard Vessel Documentation Center.

Last reported at 2017-May-26 10:30 UTC. Time now 2017-May-26 10:57 UTC.
Position N 37°48' W 122°24'.

Length 23 m; draft 2 m.

Type: Pilot. MMSI: 367370010.

Date/timePositionNaut miles runAvg speedWind from/ knotsBaromVisibWave heightAir tempDewpointWater temp
2017-May-26 10:30N 37°48' W 122°24'0 0.0
2017-May-26 10:00N 37°48' W 122°24'0 0.0
2017-May-26 09:31N 37°48' W 122°24'1 2.8
2017-May-26 09:01N 37°49' W 122°24'1 2.8
2017-May-26 08:31N 37°48' W 122°24'0 0.0
2017-May-26 08:00N 37°48' W 122°24'0 0.0
2017-May-26 07:30N 37°48' W 122°24'0 0.0
2017-May-26 07:00N 37°48' W 122°24'0 0.0
2017-May-26 06:30N 37°48' W 122°24'0 0.0
2017-May-26 06:00N 37°48' W 122°24'0 0.0
2017-May-26 05:30N 37°48' W 122°24'3 6.7
2017-May-26 05:00N 37°49' W 122°20'1 2.0
2017-May-26 04:30N 37°48' W 122°21'2 4.5
2017-May-26 03:59N 37°48' W 122°24'0 0.0
2017-May-26 03:30N 37°48' W 122°24'0 0.0
2017-May-26 03:00N 37°48' W 122°24'0 0.0
2017-May-26 02:30N 37°48' W 122°24'0 0.0
2017-May-26 02:01N 37°48' W 122°24'0 0.0
2017-May-26 01:31N 37°48' W 122°24'0 0.0
2017-May-26 01:00N 37°48' W 122°24'2 4.8
2017-May-26 00:31N 37°48' W 122°21'2 4.4
2017-May-26 00:00N 37°48' W 122°24'4 7.1
2017-May-25 23:31N 37°48' W 122°19'0 0.7
2017-May-25 23:01N 37°48' W 122°19'3 6.8
2017-May-25 22:30N 37°48' W 122°24'0 0.0
2017-May-25 22:00N 37°48' W 122°24'0 0.0
2017-May-25 21:30N 37°48' W 122°24'5 9.4
2017-May-25 21:00N 37°48' W 122°18'1 2.6
2017-May-25 20:30N 37°48' W 122°19'918.3
2017-May-25 20:01N 37°48' W 122°31'3 4.9
2017-May-25 19:29N 37°47' W 122°34'817.4
2017-May-25 19:00N 37°48' W 122°24'0 0.8
2017-May-25 18:30N 37°48' W 122°24'0 0.0
2017-May-25 18:00N 37°48' W 122°24'3 5.4
2017-May-25 17:30N 37°46' W 122°22'0 0.3
2017-May-25 17:00N 37°46' W 122°22'4 7.4
2017-May-25 16:31N 37°49' W 122°25'4 8.0
2017-May-25 16:01N 37°49' W 122°20'4 8.6
2017-May-25 15:31N 37°44' W 122°21'4 7.3
2017-May-25 15:01N 37°48' W 122°19'2 3.1
2017-May-25 14:31N 37°47' W 122°21'2 2.4
2017-May-25 13:30N 37°48' W 122°24'0 0.0
2017-May-25 13:00N 37°48' W 122°24'0 0.0
2017-May-25 12:30N 37°48' W 122°24'0 0.0
2017-May-25 12:00N 37°48' W 122°24'0 0.0
2017-May-25 11:30N 37°48' W 122°24'0 0.0
2017-May-25 11:00N 37°48' W 122°24'0 0.0
2017-May-25 10:30N 37°48' W 122°24'0 0.0
2017-May-25 10:00N 37°48' W 122°24'2 3.2
2017-May-25 09:31N 37°48' W 122°22'2 3.2
2017-May-25 09:00N 37°48' W 122°24'0 0.0
2017-May-25 08:30N 37°48' W 122°24'0 0.0
2017-May-25 08:00N 37°48' W 122°24'0 0.0
2017-May-25 07:30N 37°48' W 122°24'0 0.0
2017-May-25 07:00N 37°48' W 122°24'816.0
2017-May-25 06:31N 37°47' W 122°34'3 5.2
2017-May-25 06:00N 37°48' W 122°31'918.9
2017-May-25 05:30N 37°49' W 122°19'5 9.7
2017-May-25 05:00N 37°49' W 122°25'4 7.7
2017-May-25 04:30N 37°46' W 122°22'2 4.9
2017-May-25 04:00N 37°48' W 122°24'0 0.0
2017-May-25 03:30N 37°48' W 122°24'0 0.0
2017-May-25 02:59N 37°48' W 122°24'0 0.0
2017-May-25 02:30N 37°48' W 122°24'4 8.0
2017-May-25 02:00N 37°45' W 122°20'0 0.9
2017-May-25 01:30N 37°46' W 122°20'4 7.1
2017-May-25 01:00N 37°48' W 122°24'0 0.0
2017-May-25 00:30N 37°48' W 122°24'0 0.0
2017-May-25 00:00N 37°48' W 122°24'2 4.9
2017-May-24 23:30N 37°48' W 122°21'2 4.7
2017-May-24 23:01N 37°48' W 122°24'816.1
2017-May-24 22:31N 37°47' W 122°34'0 0.6
2017-May-24 21:59N 37°47' W 122°33'816.2
2017-May-24 21:30N 37°48' W 122°24'0 0.0
2017-May-24 21:00N 37°48' W 122°24'0 0.0
2017-May-24 20:30N 37°48' W 122°24'1 1.4
2017-May-24 19:37N 37°49' W 122°25'0 0.1
2017-May-24 19:30N 37°49' W 122°25'3 6.0
2017-May-24 19:00N 37°49' W 122°21'4 8.4
2017-May-24 18:30N 37°49' W 122°27'610.3
2017-May-24 17:55N 37°47' W 122°34'820.1
2017-May-24 17:30N 37°49' W 122°24'1 2.6
2017-May-24 17:00N 37°48' W 122°22'1 2.1
2017-May-24 16:30N 37°48' W 122°24'0 0.0
2017-May-24 16:00N 37°48' W 122°24'0 0.0
2017-May-24 15:30N 37°48' W 122°24'3 6.3
2017-May-24 15:00N 37°48' W 122°20'2 4.4
2017-May-24 14:31N 37°48' W 122°23'1 0.9
2017-May-24 13:30N 37°48' W 122°24'0 0.0
2017-May-24 13:00N 37°48' W 122°24'0 0.0
2017-May-24 12:30N 37°48' W 122°24'0 0.0
2017-May-24 12:00N 37°48' W 122°24'0 0.1
2017-May-24 11:31N 37°48' W 122°24'4 8.2
2017-May-24 11:01N 37°45' W 122°21'4 7.7
2017-May-24 10:30N 37°48' W 122°23'1 2.6
2017-May-24 10:01N 37°49' W 122°24'1 2.0
2017-May-24 09:31N 37°48' W 122°24'0 0.9
2017-May-24 09:00N 37°49' W 122°24'0 0.9
2017-May-24 08:30N 37°48' W 122°24'2 3.4
2017-May-24 08:00N 37°47' W 122°22'2 3.3
2017-May-24 07:30N 37°48' W 122°24'0 0.0
2017-May-24 07:00N 37°48' W 122°24'0 0.0
2017-May-24 06:30N 37°48' W 122°24'0 0.4
2017-May-24 06:00N 37°48' W 122°24'1019.3
2017-May-24 05:30N 37°47' W 122°36'3 6.4
2017-May-24 05:00N 37°48' W 122°32'816.5
2017-May-24 04:30N 37°47' W 122°22'2 4.1
2017-May-24 04:00N 37°48' W 122°24'0 0.3
2017-May-24 03:30N 37°48' W 122°24'0 0.0
2017-May-24 03:00N 37°48' W 122°24'0 0.0
2017-May-24 02:30N 37°48' W 122°24'0 0.0
2017-May-24 02:00N 37°48' W 122°24'816.8
2017-May-24 01:30N 37°47' W 122°34'1 1.3
2017-May-24 01:00N 37°47' W 122°35'1020.7
2017-May-24 00:30N 37°48' W 122°22'2 3.5
2017-May-24 00:00N 37°46' W 122°22'1 2.5
2017-May-23 23:30N 37°45' W 122°21'4 7.2
2017-May-23 23:00N 37°48' W 122°24'0 0.0
2017-May-23 22:30N 37°48' W 122°24'0 0.0
2017-May-23 22:00N 37°48' W 122°24'2 4.1
2017-May-23 21:31N 37°49' W 122°26'714.2
2017-May-23 21:00N 37°47' W 122°35'1020.0
2017-May-23 20:31N 37°48' W 122°22'1 2.7
2017-May-23 20:00N 37°48' W 122°24'0 0.0
2017-May-23 19:30N 37°48' W 122°24'0 0.0
2017-May-23 19:00N 37°48' W 122°24'0 0.0
2017-May-23 18:30N 37°48' W 122°24'4 7.2
2017-May-23 18:00N 37°48' W 122°19'4 7.2
2017-May-23 17:30N 37°48' W 122°24'0 0.0
2017-May-23 17:00N 37°48' W 122°24'0 0.3
2017-May-23 16:30N 37°48' W 122°24'1 2.3
2017-May-23 15:58N 37°49' W 122°25'4 8.5
2017-May-23 15:30N 37°49' W 122°20'612.0
2017-May-23 15:01N 37°49' W 122°28'3 3.4
2017-May-23 14:00N 37°48' W 122°24'4 8.4
2017-May-23 13:30N 37°48' W 122°18'4 7.7
2017-May-23 13:00N 37°48' W 122°23'3 6.2
2017-May-23 12:30N 37°45' W 122°23'0 0.9
2017-May-23 12:00N 37°45' W 122°22'3 5.9
2017-May-23 11:30N 37°48' W 122°24'2 3.3
2017-May-23 11:01N 37°49' W 122°26'2 3.3
2017-May-23 10:30N 37°48' W 122°24'0 0.1
2017-May-23 10:00N 37°48' W 122°24'0 0.5
2017-May-23 09:30N 37°48' W 122°23'0 0.5
2017-May-23 09:00N 37°48' W 122°24'2 4.8
2017-May-23 08:31N 37°48' W 122°21'2 4.6
2017-May-23 08:00N 37°48' W 122°24'0 0.0
2017-May-23 07:30N 37°48' W 122°24'1 1.3
2017-May-23 07:01N 37°48' W 122°23'1 1.2
2017-May-23 06:30N 37°48' W 122°24'0 0.0
2017-May-23 06:00N 37°48' W 122°24'0 0.0
2017-May-23 05:30N 37°48' W 122°24'0 0.9
2017-May-23 05:01N 37°48' W 122°23'0 0.9
2017-May-23 04:30N 37°48' W 122°24'0 0.0
2017-May-23 04:00N 37°48' W 122°24'0 0.2
2017-May-23 03:31N 37°48' W 122°24'1019.8
2017-May-23 03:00N 37°46' W 122°36'1 1.8
2017-May-23 02:28N 37°46' W 122°37'511.6
2017-May-23 02:01N 37°48' W 122°31'714.1
2017-May-23 01:31N 37°48' W 122°22'1 2.8
2017-May-23 01:00N 37°48' W 122°24'3 5.3
2017-May-23 00:30N 37°47' W 122°21'1 1.4
2017-May-23 00:01N 37°47' W 122°21'2 3.6
2017-May-22 23:31N 37°45' W 122°21'4 7.9
2017-May-22 23:00N 37°48' W 122°24'0 0.0
2017-May-22 22:30N 37°48' W 122°24'0 0.0
2017-May-22 22:00N 37°48' W 122°24'0 0.0
2017-May-22 21:30N 37°48' W 122°24'2 3.2
2017-May-22 21:00N 37°48' W 122°22'611.6
2017-May-22 20:30N 37°49' W 122°29'917.4
2017-May-22 19:59N 37°45' W 122°40'817.3
2017-May-22 19:30N 37°48' W 122°30'5 9.6
2017-May-22 19:01N 37°48' W 122°24'0 0.0
2017-May-22 18:31N 37°48' W 122°24'0 0.1
2017-May-22 18:01N 37°48' W 122°24'3 6.0
2017-May-22 17:30N 37°46' W 122°21'2 4.4
2017-May-22 17:01N 37°48' W 122°20'4 7.4
2017-May-22 16:30N 37°49' W 122°25'0 0.0
2017-May-22 16:00N 37°49' W 122°25'611.4
2017-May-22 15:31N 37°45' W 122°20'817.0
2017-May-22 15:00N 37°48' W 122°30'4 4.3
2017-May-22 14:00N 37°49' W 122°24'1 2.4
2017-May-22 13:30N 37°48' W 122°23'0 0.9
2017-May-22 13:00N 37°48' W 122°23'1 1.4
2017-May-22 12:30N 37°48' W 122°24'0 0.0
2017-May-22 12:00N 37°48' W 122°24'0 0.2
2017-May-22 11:30N 37°48' W 122°24'1 2.0
2017-May-22 11:00N 37°49' W 122°25'1018.8
2017-May-22 10:29N 37°46' W 122°37'2 4.4
2017-May-22 09:58N 37°47' W 122°34'818.0
2017-May-22 09:31N 37°48' W 122°24'3 5.8
2017-May-22 09:01N 37°49' W 122°20'3 5.9
2017-May-22 08:30N 37°48' W 122°24'0 0.0
2017-May-22 08:00N 37°48' W 122°24'0 0.0
2017-May-22 07:30N 37°48' W 122°24'0 0.0
2017-May-22 07:00N 37°48' W 122°24'0 0.0
2017-May-22 06:30N 37°48' W 122°24'0 0.0
2017-May-22 06:00N 37°48' W 122°24'0 0.0
2017-May-22 05:30N 37°48' W 122°24'0 0.0
2017-May-22 05:00N 37°48' W 122°24'0 0.0
2017-May-22 04:30N 37°48' W 122°24'0 0.0
2017-May-22 04:00N 37°48' W 122°24'0 0.0
2017-May-22 03:30N 37°48' W 122°24'0 0.0
2017-May-22 03:00N 37°48' W 122°24'0 0.0
2017-May-22 02:30N 37°48' W 122°24'0 0.0
2017-May-22 02:00N 37°48' W 122°24'0 0.0
2017-May-22 01:30N 37°48' W 122°24'0 0.0
2017-May-22 01:00N 37°48' W 122°24'3 6.7
2017-May-22 00:30N 37°48' W 122°20'1 2.2
2017-May-22 00:01N 37°48' W 122°21'2 4.4
2017-May-21 23:30N 37°48' W 122°24'0 0.0
2017-May-21 23:00N 37°48' W 122°24'0 0.0
2017-May-21 22:30N 37°48' W 122°24'0 0.0
2017-May-21 22:00N 37°48' W 122°24'0 0.0
2017-May-21 21:30N 37°48' W 122°24'0 0.0
2017-May-21 21:00N 37°48' W 122°24'0 0.0
2017-May-21 20:30N 37°48' W 122°24'0 0.0
2017-May-21 20:00N 37°48' W 122°24'0 0.0
2017-May-21 19:30N 37°48' W 122°24'0 0.0
2017-May-21 19:00N 37°48' W 122°24'0 0.0
2017-May-21 18:31N 37°48' W 122°24'0 0.0
2017-May-21 18:01N 37°48' W 122°24'0 0.0
2017-May-21 17:31N 37°48' W 122°24'0 0.0
2017-May-21 17:00N 37°48' W 122°24'0 0.2
2017-May-21 16:30N 37°48' W 122°24'2 4.6
2017-May-21 16:00N 37°48' W 122°21'2 4.4
2017-May-21 15:30N 37°48' W 122°24'0 0.0
2017-May-21 15:00N 37°48' W 122°24'0 0.0
2017-May-21 14:30N 37°48' W 122°24'0 0.0
2017-May-21 13:30N 37°48' W 122°24'0 0.0
2017-May-21 13:00N 37°48' W 122°24'0 0.0
2017-May-21 12:30N 37°48' W 122°24'0 0.0
2017-May-21 12:00N 37°48' W 122°24'2 4.9
2017-May-21 11:31N 37°49' W 122°26'3 5.0
2017-May-21 11:00N 37°49' W 122°23'1020.2
2017-May-21 10:30N 37°46' W 122°36'2 3.3
2017-May-21 09:54N 37°47' W 122°34'820.7
2017-May-21 09:30N 37°48' W 122°24'0 0.1
2017-May-21 09:00N 37°48' W 122°24'0 0.0
2017-May-21 08:30N 37°48' W 122°24'0 0.1
2017-May-21 08:00N 37°48' W 122°24'2 3.9
2017-May-21 07:30N 37°47' W 122°22'2 3.9
2017-May-21 07:00N 37°48' W 122°24'0 0.0
2017-May-21 06:30N 37°48' W 122°24'0 0.0
2017-May-21 06:00N 37°48' W 122°24'816.3
2017-May-21 05:30N 37°47' W 122°34'1 2.6
2017-May-21 05:00N 37°48' W 122°32'1019.6
2017-May-21 04:30N 37°49' W 122°20'3 5.6
2017-May-21 04:00N 37°49' W 122°24'1 1.0
2017-May-21 03:31N 37°48' W 122°24'0 0.0
2017-May-21 03:00N 37°48' W 122°24'0 0.0
2017-May-21 02:30N 37°48' W 122°24'0 0.0
2017-May-21 02:00N 37°48' W 122°24'0 0.0
2017-May-21 01:31N 37°48' W 122°24'3 5.7
2017-May-21 01:01N 37°46' W 122°21'1 2.7
2017-May-21 00:31N 37°45' W 122°20'4 8.4
2017-May-21 00:01N 37°48' W 122°24'0 0.0
2017-May-20 23:31N 37°48' W 122°24'1 1.4
2017-May-20 23:01N 37°49' W 122°23'1019.5
2017-May-20 22:31N 37°47' W 122°36'815.4
2017-May-20 22:01N 37°49' W 122°26'2 4.5
2017-May-20 21:30N 37°48' W 122°24'1 2.6
2017-May-20 21:00N 37°49' W 122°25'0 0.2
2017-May-20 20:31N 37°49' W 122°25'1 1.0
2017-May-20 20:01N 37°49' W 122°25'0 0.8
2017-May-20 19:31N 37°49' W 122°25'1 2.9
2017-May-20 19:00N 37°48' W 122°24'0 0.0
2017-May-20 17:57N 37°48' W 122°24'0 0.0
2017-May-20 17:30N 37°48' W 122°24'2 3.5
2017-May-20 17:00N 37°48' W 122°22'2 3.6
2017-May-20 16:31N 37°48' W 122°19'4 7.0
2017-May-20 16:00N 37°48' W 122°24'0 0.0
2017-May-20 15:30N 37°48' W 122°24'0 0.0
2017-May-20 15:00N 37°48' W 122°24'0 0.0
2017-May-20 14:31N 37°48' W 122°24'3 3.2
2017-May-20 13:31N 37°49' W 122°28'611.9
2017-May-20 13:00N 37°48' W 122°20'510.3
2017-May-20 12:30N 37°49' W 122°27'2 4.9
2017-May-20 12:00N 37°48' W 122°24'0 0.0
2017-May-20 11:30N 37°48' W 122°24'0 0.0
2017-May-20 11:00N 37°48' W 122°24'2 3.7
2017-May-20 10:31N 37°47' W 122°22'2 3.7
2017-May-20 10:01N 37°48' W 122°24'0 0.0
2017-May-20 09:30N 37°48' W 122°24'0 0.0
2017-May-20 09:01N 37°48' W 122°24'1 2.8
2017-May-20 08:30N 37°49' W 122°25'1220.3
2017-May-20 07:55N 37°46' W 122°40'921.2
2017-May-20 07:31N 37°49' W 122°29'4 9.0
2017-May-20 07:00N 37°48' W 122°24'1 1.3
2017-May-20 06:31N 37°48' W 122°23'3 6.5
2017-May-20 06:01N 37°45' W 122°20'611.0
2017-May-20 05:31N 37°49' W 122°25'10 9.5
2017-May-20 04:29N 37°46' W 122°37'4 8.5
2017-May-20 04:01N 37°47' W 122°32'713.5
2017-May-20 03:31N 37°49' W 122°24'1 1.4
2017-May-20 03:01N 37°48' W 122°24'1 1.2
2017-May-20 02:30N 37°49' W 122°23'3 6.1
2017-May-20 02:01N 37°48' W 122°20'2 4.6
2017-May-20 01:31N 37°46' W 122°21'3 6.2
2017-May-20 01:00N 37°48' W 122°24'0 0.1
2017-May-20 00:30N 37°48' W 122°24'4 7.5
2017-May-20 00:00N 37°48' W 122°19'1 2.8
2017-May-19 23:30N 37°48' W 122°21'5 9.8
2017-May-19 23:00N 37°49' W 122°27'3 5.1
2017-May-19 22:30N 37°48' W 122°24'0 0.0
2017-May-19 22:00N 37°48' W 122°24'3 5.3
2017-May-19 21:31N 37°48' W 122°20'3 5.3
2017-May-19 21:01N 37°48' W 122°24'1 2.4
2017-May-19 20:30N 37°49' W 122°25'1 2.4
2017-May-19 20:00N 37°48' W 122°24'0 0.0
2017-May-19 19:30N 37°48' W 122°24'0 0.0
2017-May-19 17:54N 37°48' W 122°24'0 0.0
2017-May-19 16:01N 37°48' W 122°24'0 0.0
2017-May-19 16:00N 37°48' W 122°24'0 0.0
2017-May-19 15:30N 37°48' W 122°24'0 0.0
2017-May-19 15:00N 37°48' W 122°24'4 3.7
2017-May-19 14:00N 37°49' W 122°28'4 7.8
2017-May-19 13:31N 37°48' W 122°23'3 6.5
2017-May-19 13:00N 37°45' W 122°21'3 5.8
2017-May-19 12:30N 37°48' W 122°19'510.6
2017-May-19 12:00N 37°50' W 122°25'2 5.0
2017-May-19 11:31N 37°48' W 122°24'3 6.2
2017-May-19 11:00N 37°46' W 122°21'3 6.2
2017-May-19 10:30N 37°48' W 122°24'0 0.0
2017-May-19 10:01N 37°48' W 122°24'0 0.0
2017-May-19 09:31N 37°48' W 122°24'0 0.0
2017-May-19 09:00N 37°48' W 122°24'0 0.0
2017-May-19 08:31N 37°48' W 122°24'0 0.0
2017-May-19 08:00N 37°48' W 122°24'0 0.0
2017-May-19 07:31N 37°48' W 122°24'0 0.0
2017-May-19 07:00N 37°48' W 122°24'0 0.0
2017-May-19 06:30N 37°48' W 122°24'0 0.0
2017-May-19 06:01N 37°48' W 122°24'0 0.0
2017-May-19 05:31N 37°48' W 122°24'0 0.0
2017-May-19 05:01N 37°48' W 122°24'0 0.0
2017-May-19 04:30N 37°48' W 122°24'1 2.4
2017-May-19 04:01N 37°47' W 122°23'1 2.9
2017-May-19 03:30N 37°48' W 122°21'2 4.8
2017-May-19 03:00N 37°48' W 122°24'0 0.0
2017-May-19 02:30N 37°48' W 122°24'2 4.5
2017-May-19 02:01N 37°47' W 122°21'2 4.0
2017-May-19 01:30N 37°49' W 122°20'510.6
2017-May-19 01:00N 37°49' W 122°27'3 5.2
2017-May-19 00:30N 37°48' W 122°24'5 9.1
2017-May-19 00:00N 37°44' W 122°20'1 2.9
2017-May-18 23:30N 37°46' W 122°22'3 6.1
2017-May-18 23:00N 37°48' W 122°24'0 0.0
2017-May-18 22:30N 37°48' W 122°24'0 0.0
2017-May-18 22:00N 37°48' W 122°24'0 0.0
2017-May-18 21:30N 37°48' W 122°24'0 0.0
2017-May-18 20:59N 37°48' W 122°24'0 0.0
2017-May-18 20:30N 37°48' W 122°24'0 0.0
2017-May-18 20:00N 37°48' W 122°24'0 0.0
2017-May-18 19:30N 37°48' W 122°24'0 0.0
2017-May-18 19:00N 37°48' W 122°24'0 0.0
2017-May-18 18:30N 37°48' W 122°24'0 0.0
2017-May-18 18:00N 37°48' W 122°24'0 0.0
2017-May-18 17:30N 37°48' W 122°24'0 0.0
2017-May-18 17:00N 37°48' W 122°24'0 0.0
2017-May-18 16:30N 37°48' W 122°24'0 0.0
2017-May-18 16:00N 37°48' W 122°24'0 0.0
2017-May-18 15:30N 37°48' W 122°24'0 0.0
2017-May-18 15:00N 37°48' W 122°24'3 2.9
2017-May-18 14:01N 37°49' W 122°20'3 5.7
2017-May-18 13:31N 37°48' W 122°24'0 0.0
2017-May-18 13:00N 37°48' W 122°24'3 5.4
2017-May-18 12:31N 37°48' W 122°20'3 6.2
2017-May-18 12:00N 37°49' W 122°24'1 1.6
2017-May-18 11:30N 37°48' W 122°24'0 0.0
2017-May-18 11:00N 37°48' W 122°24'0 0.0
2017-May-18 10:30N 37°48' W 122°24'3 5.9
2017-May-18 10:00N 37°49' W 122°27'4 8.5
2017-May-18 09:30N 37°47' W 122°22'1 2.6
2017-May-18 09:00N 37°48' W 122°24'2 3.5
2017-May-18 08:30N 37°47' W 122°22'2 3.4
2017-May-18 08:00N 37°48' W 122°24'0 0.0
2017-May-18 07:30N 37°48' W 122°24'0 0.0
2017-May-18 07:00N 37°48' W 122°24'0 0.0
2017-May-18 06:30N 37°48' W 122°24'0 0.0
2017-May-18 06:00N 37°48' W 122°24'1 1.9
2017-May-18 05:31N 37°48' W 122°23'1 3.0
2017-May-18 05:00N 37°49' W 122°24'1 2.1
2017-May-18 04:30N 37°48' W 122°24'4 8.7
2017-May-18 04:00N 37°52' W 122°25'4 8.6
2017-May-18 03:30N 37°48' W 122°24'1 2.0
2017-May-18 03:00N 37°48' W 122°23'1 2.0
2017-May-18 02:31N 37°48' W 122°24'0 0.0
2017-May-18 02:00N 37°48' W 122°24'0 0.0
2017-May-18 01:30N 37°48' W 122°24'3 5.7
2017-May-18 01:00N 37°48' W 122°20'3 5.7
2017-May-18 00:30N 37°48' W 122°24'4 7.2
2017-May-18 00:00N 37°45' W 122°22'0 0.2
2017-May-17 23:30N 37°45' W 122°22'2 3.0
2017-May-17 23:00N 37°46' W 122°22'3 5.1
2017-May-17 22:30N 37°48' W 122°24'0 0.0
2017-May-17 22:00N 37°48' W 122°24'0 0.0
2017-May-17 21:30N 37°48' W 122°24'0 0.0
2017-May-17 21:00N 37°48' W 122°24'3 5.7
2017-May-17 20:31N 37°46' W 122°22'2 3.9
2017-May-17 20:01N 37°48' W 122°21'2 4.8
2017-May-17 19:30N 37°48' W 122°24'0 0.2
2017-May-17 19:00N 37°48' W 122°24'0 0.0
2017-May-17 18:30N 37°48' W 122°24'0 0.0
2017-May-17 18:00N 37°48' W 122°24'0 0.0
2017-May-17 17:30N 37°48' W 122°24'0 0.0
2017-May-17 17:00N 37°48' W 122°24'0 0.0
2017-May-17 16:30N 37°48' W 122°24'0 0.0
2017-May-17 16:00N 37°48' W 122°24'0 0.0
2017-May-17 15:27N 37°48' W 122°24'1 2.4
2017-May-17 15:01N 37°49' W 122°25'5 4.7
2017-May-17 14:00N 37°48' W 122°19'3 5.5
2017-May-17 13:30N 37°46' W 122°21'3 5.7
2017-May-17 13:00N 37°48' W 122°24'0 0.0
2017-May-17 12:30N 37°48' W 122°24'0 0.0
2017-May-17 12:00N 37°48' W 122°24'1 2.8
2017-May-17 11:30N 37°49' W 122°25'1 2.0
2017-May-17 11:00N 37°49' W 122°26'3 5.3
2017-May-17 10:30N 37°49' W 122°23'1122.2
2017-May-17 10:00N 37°46' W 122°37'3 5.3
2017-May-17 09:30N 37°47' W 122°34'815.7
2017-May-17 09:00N 37°48' W 122°24'4 7.2
2017-May-17 08:30N 37°46' W 122°20'2 4.9
2017-May-17 08:00N 37°48' W 122°21'2 3.4
2017-May-17 07:30N 37°47' W 122°21'2 4.7
2017-May-17 07:00N 37°48' W 122°24'0 0.0
2017-May-17 06:30N 37°48' W 122°24'0 0.0
2017-May-17 06:00N 37°48' W 122°24'0 0.0
2017-May-17 05:30N 37°48' W 122°24'0 0.0
2017-May-17 05:00N 37°48' W 122°24'0 0.0
2017-May-17 04:30N 37°48' W 122°24'2 4.1
2017-May-17 04:00N 37°49' W 122°26'2 4.1
2017-May-17 03:30N 37°48' W 122°24'0 0.0
2017-May-17 03:00N 37°48' W 122°24'0 0.0
2017-May-17 02:30N 37°48' W 122°24'0 0.0
2017-May-17 02:00N 37°48' W 122°24'0 0.0
2017-May-17 01:30N 37°48' W 122°24'3 5.5
2017-May-17 01:00N 37°47' W 122°21'3 5.1
2017-May-17 00:30N 37°48' W 122°23'0 0.6
2017-May-17 00:00N 37°48' W 122°24'0 0.0
2017-May-16 23:30N 37°48' W 122°24'0 0.0
2017-May-16 23:00N 37°48' W 122°24'0 0.0
2017-May-16 22:30N 37°48' W 122°24'1 2.3
2017-May-16 22:00N 37°48' W 122°23'2 3.6
2017-May-16 21:30N 37°46' W 122°21'3 5.5
2017-May-16 21:00N 37°48' W 122°24'0 0.0
2017-May-16 20:30N 37°48' W 122°24'0 0.0
2017-May-16 20:00N 37°48' W 122°24'0 0.0
2017-May-16 19:31N 37°48' W 122°24'0 0.0
2017-May-16 19:00N 37°48' W 122°24'0 0.0
2017-May-16 18:30N 37°48' W 122°24'0 0.0
2017-May-16 18:01N 37°48' W 122°24'3 6.1
2017-May-16 17:30N 37°46' W 122°21'3 6.4
2017-May-16 17:00N 37°49' W 122°20'1 1.6
2017-May-16 16:31N 37°48' W 122°20'4 8.0
2017-May-16 16:00N 37°49' W 122°24'1 1.3
2017-May-16 15:30N 37°49' W 122°25'2 3.0
2017-May-16 15:00N 37°49' W 122°27'611.0
2017-May-16 14:30N 37°46' W 122°21'3 2.8
2017-May-16 13:31N 37°48' W 122°24'0 0.0
2017-May-16 13:00N 37°48' W 122°24'0 0.0
2017-May-16 12:30N 37°48' W 122°24'0 0.0
2017-May-16 12:00N 37°48' W 122°24'0 0.0
2017-May-16 11:30N 37°48' W 122°24'0 0.0
2017-May-16 11:00N 37°48' W 122°24'0 0.0
2017-May-16 10:30N 37°48' W 122°24'  

Dump ship's entire track history